Time;durP1;ratioP1;P1;durP2;ratioP2;P2;SDS_P1;SDS_P2;PMS_P1;PMS_P2;Temp;Humidity;BMP_temperature;BMP_pressure;BME280_temperature;BME280_humidity;BME280_pressure;Samples;Min_cycle;Max_cycle;Signal;HPM_P1;HPM_P2
2022/10/22 00:01:30;;;;;;;;;2.00;2.00;;;;;17.28;66.64;100316.94;4996145;28;45539;-62
2022/10/22 00:03:55;;;;;;;;;2.75;2.50;;;;;17.19;66.40;100298.00;4997118;28;45248;-62
2022/10/22 00:06:21;;;;;;;;;4.50;2.00;;;;;17.32;66.60;100315.28;5013004;28;45254;-62
2022/10/22 00:08:46;;;;;;;;;2.00;2.00;;;;;17.24;66.44;100302.72;4997304;28;45864;-61
2022/10/22 00:11:13;;;;;;;;;2.00;2.00;;;;;17.32;66.36;100320.81;4995743;28;45382;-61
2022/10/22 00:13:39;;;;;;;;;3.60;2.20;;;;;17.30;66.27;100317.47;4997481;28;45286;-61
2022/10/22 00:16:04;;;;;;;;;2.25;1.50;;;;;17.27;66.32;100310.53;5012778;28;45539;-61
2022/10/22 00:18:30;;;;;;;;;2.25;2.00;;;;;17.34;66.41;100322.22;4996825;28;45573;-61
2022/10/22 00:20:56;;;;;;;;;2.50;2.50;;;;;17.32;66.41;100320.81;4995496;28;45258;-61
2022/10/22 00:23:21;;;;;;;;;2.00;2.00;;;;;17.25;66.29;100320.22;4996365;28;45397;-62
2022/10/22 00:25:47;;;;;;;;;1.00;1.00;;;;;17.30;66.48;100332.16;4992790;28;45504;-62
2022/10/22 00:28:13;;;;;;;;;2.75;1.00;;;;;17.28;65.97;100341.88;4977047;28;45485;-62
2022/10/22 00:30:39;;;;;;;;;4.80;2.00;;;;;17.19;66.25;100322.13;4977076;28;45311;-62
2022/10/22 00:33:04;;;;;;;;;2.00;2.00;;;;;17.20;66.41;100338.47;4992338;28;45365;-62
2022/10/22 00:35:30;;;;;;;;;2.00;1.00;;;;;17.24;66.46;100358.19;4977702;28;45440;-62
2022/10/22 00:37:55;;;;;;;;;4.25;2.25;;;;;17.20;66.47;100357.88;4975295;28;48893;-63
2022/10/22 00:40:21;;;;;;;;;1.00;1.00;;;;;17.19;66.55;100347.91;4976862;28;45412;-62
2022/10/22 00:42:46;;;;;;;;;4.00;3.00;;;;;17.23;66.56;100356.53;4977354;28;45315;-62
2022/10/22 00:45:16;;;;;;;;;5.50;3.00;;;;;17.24;66.63;100360.97;4976893;28;45295;-62
2022/10/22 00:47:45;;;;;;;;;2.00;2.00;;;;;17.11;66.22;100342.00;4977047;28;45801;-62
2022/10/22 00:50:16;;;;;;;;;2.00;1.60;;;;;17.24;66.24;100366.50;4965557;28;46053;-62
2022/10/22 00:52:42;;;;;;;;;2.00;2.00;;;;;17.18;66.43;100371.19;4994007;28;45422;-62
2022/10/22 00:55:07;;;;;;;;;3.00;2.00;;;;;17.02;66.59;100339.75;4994653;28;45579;-63
2022/10/22 00:57:33;;;;;;;;;3.00;3.00;;;;;17.18;66.71;100378.69;4994613;28;46120;-62
2022/10/22 00:59:58;;;;;;;;;3.50;3.50;;;;;16.79;66.44;100322.34;4996092;28;45358;-63
2022/10/22 01:02:24;;;;;;;;;3.75;2.25;;;;;17.06;66.56;100368.63;4995634;28;45437;-62
2022/10/22 01:04:49;;;;;;;;;2.75;1.75;;;;;17.14;66.51;100392.22;4995119;28;45585;-64
2022/10/22 01:07:20;;;;;;;;;2.75;2.00;;;;;16.94;66.30;100363.22;4996198;28;46977;-61
2022/10/22 01:09:58;;;;;;;;;5.00;1.60;;;;;17.13;66.69;100398.88;4993857;28;45377;-61
2022/10/22 01:12:45;;;;;;;;;1.00;1.00;;;;;17.12;66.77;100394.44;5010879;28;45431;-61
2022/10/22 01:15:13;;;;;;;;;1.00;1.00;;;;;17.13;66.60;100401.66;5011492;28;45474;-62
2022/10/22 01:17:44;;;;;;;;;1.00;1.00;;;;;17.12;66.47;100404.72;4995960;28;45433;-61
2022/10/22 01:20:20;;;;;;;;;1.80;1.80;;;;;16.87;66.57;100376.44;4995539;28;45488;-61
2022/10/22 01:23:07;;;;;;;;;4.00;4.00;;;;;17.09;66.63;100411.63;5010512;28;45430;-61
2022/10/22 01:26:17;;;;;;;;;7.80;3.40;;;;;17.08;66.31;100404.41;4980820;28;45372;-61
2022/10/22 01:28:56;;;;;;;;;3.80;3.80;;;;;16.74;65.99;100355.56;4976211;28;46327;-61
2022/10/22 01:31:22;;;;;;;;;4.00;4.00;;;;;16.92;66.35;100392.31;4991224;28;45493;-61
2022/10/22 01:33:48;;;;;;;;;1.80;1.80;;;;;17.08;65.98;100418.28;4974534;28;45602;-61
2022/10/22 01:36:13;;;;;;;;;1.75;1.75;;;;;17.12;66.26;100433.25;4991337;28;45571;-61
2022/10/22 01:38:39;;;;;;;;;3.75;3.00;;;;;17.15;65.97;100432.75;4975016;28;45390;-61
2022/10/22 01:41:04;;;;;;;;;2.25;1.00;;;;;17.18;65.62;100428.59;4974370;28;45303;-61
2022/10/22 01:43:30;;;;;;;;;2.00;1.00;;;;;16.95;65.54;100386.22;4976354;28;45337;-61
2022/10/22 01:45:57;;;;;;;;;1.00;1.00;;;;;17.17;65.20;100427.75;4976200;28;45195;-61
2022/10/22 01:48:28;;;;;;;;;1.40;1.40;;;;;17.14;65.39;100428.28;4974860;28;45386;-61
2022/10/22 01:51:17;;;;;;;;;4.40;2.00;;;;;17.15;65.60;100429.13;4975873;28;45786;-62
2022/10/22 01:54:06;;;;;;;;;2.00;2.00;;;;;16.45;65.36;100308.75;4991176;28;45448;-61
2022/10/22 01:57:00;;;;;;;;;2.00;1.40;;;;;17.03;65.40;100404.34;4991267;28;45419;-61
2022/10/22 01:59:31;;;;;;;;;1.80;1.20;;;;;17.22;65.40;100429.72;4975457;28;45423;-61
2022/10/22 02:02:02;;;;;;;;;0.80;0.80;;;;;17.23;65.32;100427.81;4975759;28;45445;-61
2022/10/22 02:04:41;;;;;;;;;1.80;1.80;;;;;17.23;65.35;100423.09;4977516;28;45437;-61
2022/10/22 02:07:07;;;;;;;;;1.00;1.00;;;;;17.30;65.17;100433.97;4995185;28;45602;-60
2022/10/22 02:09:33;;;;;;;;;3.60;1.00;;;;;17.30;65.16;100422.88;4993772;28;46282;-61
2022/10/22 02:12:00;;;;;;;;;1.25;1.25;;;;;17.14;64.89;100406.09;4994087;28;45736;-61
2022/10/22 02:14:27;;;;;;;;;3.00;1.40;;;;;17.33;65.11;100437.03;4977752;28;45504;-61
2022/10/22 02:16:52;;;;;;;;;3.00;3.00;;;;;17.35;65.11;100436.78;4978374;28;45462;-61
2022/10/22 02:19:25;;;;;;;;;4.25;3.00;;;;;17.21;64.98;100416.97;4993223;28;45450;-62
2022/10/22 02:21:51;;;;;;;;;1.80;1.80;;;;;17.36;65.03;100444.00;4994324;28;45308;-61
2022/10/22 02:24:17;;;;;;;;;1.00;0.00;;;;;17.35;65.06;100434.00;4995292;28;45357;-61
2022/10/22 02:27:06;;;;;;;;;3.00;3.00;;;;;17.36;64.93;100434.84;4995589;28;45725;-61
2022/10/22 02:29:45;;;;;;;;;1.00;1.00;;;;;17.14;65.11;100396.94;4993364;28;45711;-61
2022/10/22 02:32:12;;;;;;;;;2.00;0.60;;;;;17.29;64.84;100426.75;5010112;28;45936;-61
2022/10/22 02:34:37;;;;;;;;;3.00;2.00;;;;;17.28;64.57;100437.00;4977357;28;45673;-61
2022/10/22 02:37:03;;;;;;;;;1.00;1.00;;;;;17.25;65.20;100436.69;4993996;28;45322;-61
2022/10/22 02:39:28;;;;;;;;;1.50;1.25;;;;;17.28;65.48;100442.53;5009863;28;46645;-60
2022/10/22 02:41:56;;;;;;;;;4.75;2.00;;;;;17.26;65.47;100450.31;4993623;28;45421;-61
2022/10/22 02:44:22;;;;;;;;;4.00;1.00;;;;;17.22;65.65;100448.31;4993451;28;45480;-61
2022/10/22 02:46:48;;;;;;;;;1.00;1.00;;;;;17.22;65.85;100453.88;4994947;28;45429;-61
2022/10/22 02:49:13;;;;;;;;;1.00;1.00;;;;;17.22;65.83;100459.41;4994771;28;46063;-61
2022/10/22 02:51:39;;;;;;;;;1.00;1.00;;;;;17.16;65.68;100470.47;4993816;28;45501;-61
2022/10/22 02:54:04;;;;;;;;;3.25;3.25;;;;;16.98;65.96;100452.25;4993417;28;45409;-61
2022/10/22 02:56:30;;;;;;;;;2.00;1.00;;;;;17.11;66.00;100475.09;4993347;28;45318;-61
2022/10/22 02:58:55;;;;;;;;;2.25;1.25;;;;;17.12;65.85;100476.81;4993525;28;45391;-61
2022/10/22 03:01:21;;;;;;;;;2.50;1.75;;;;;17.10;66.12;100484.53;4994374;28;45381;-61
2022/10/22 03:03:46;;;;;;;;;3.00;2.00;;;;;17.08;66.23;100479.25;4994471;28;45299;-61
2022/10/22 03:06:12;;;;;;;;;4.00;2.00;;;;;16.90;66.14;100453.53;4994931;28;45240;-61
2022/10/22 03:08:37;;;;;;;;;4.50;1.00;;;;;17.06;66.37;100486.97;4993135;28;45423;-61
2022/10/22 03:11:03;;;;;;;;;2.00;1.00;;;;;17.09;66.32;100483.69;4994569;28;45386;-61
2022/10/22 03:13:28;;;;;;;;;1.00;1.00;;;;;17.08;66.32;100490.34;5009881;28;45591;-61
2022/10/22 03:15:54;;;;;;;;;2.00;1.00;;;;;17.08;66.29;100487.56;4994719;28;45238;-61
2022/10/22 03:18:19;;;;;;;;;5.75;2.50;;;;;17.04;66.12;100489.19;5025941;28;47422;-61
2022/10/22 03:20:44;;;;;;;;;5.00;1.25;;;;;17.04;66.59;100497.50;4993758;28;45396;-61
2022/10/22 03:23:11;;;;;;;;;5.00;2.00;;;;;17.05;66.31;100501.94;4994762;28;45474;-61
2022/10/22 03:25:38;;;;;;;;;1.60;1.00;;;;;17.03;66.49;100495.84;4981016;28;45469;-61
2022/10/22 03:28:04;;;;;;;;;1.40;1.00;;;;;17.04;66.53;100506.66;4957130;28;46353;-61
2022/10/22 03:30:30;;;;;;;;;1.40;1.40;;;;;17.04;66.60;100514.97;4973042;28;45481;-63
2022/10/22 03:32:56;;;;;;;;;1.00;0.00;;;;;17.01;66.69;100504.38;4944093;28;46001;-60
2022/10/22 03:35:21;;;;;;;;;1.00;1.00;;;;;16.99;66.83;100506.59;4978784;28;45308;-62
2022/10/22 03:37:47;;;;;;;;;1.75;1.75;;;;;17.01;66.47;100511.84;4976824;28;46057;-61
2022/10/22 03:40:13;;;;;;;;;1.25;1.00;;;;;17.04;66.80;100508.59;4978206;28;45376;-61
2022/10/22 03:42:39;;;;;;;;;1.00;1.00;;;;;16.94;66.91;100507.38;4977208;28;45423;-63
2022/10/22 03:45:05;;;;;;;;;1.00;1.00;;;;;16.94;67.03;100510.16;4977907;28;45317;-60
2022/10/22 03:47:31;;;;;;;;;1.20;1.20;;;;;16.96;67.00;100518.19;4978284;28;46195;-60
2022/10/22 03:49:56;;;;;;;;;0.75;0.75;;;;;16.58;67.01;100459.84;4978059;28;45354;-60
2022/10/22 03:52:22;;;;;;;;;3.00;3.00;;;;;16.84;67.03;100498.09;4976926;28;45511;-62
2022/10/22 03:54:47;;;;;;;;;2.50;1.50;;;;;16.79;67.10;100491.41;4978219;28;45332;-60
2022/10/22 03:57:13;;;;;;;;;2.25;2.00;;;;;16.93;67.43;100515.94;4976413;28;46011;-61
2022/10/22 03:59:40;;;;;;;;;1.00;1.00;;;;;16.94;67.04;100520.38;4976691;28;45482;-61
2022/10/22 04:02:06;;;;;;;;;3.00;2.40;;;;;16.94;67.00;100528.69;4976090;28;45454;-61
2022/10/22 04:04:31;;;;;;;;;2.00;1.00;;;;;16.94;66.65;100531.47;4978231;28;45461;-61
2022/10/22 04:06:57;;;;;;;;;2.00;0.75;;;;;16.85;67.25;100517.22;4977449;28;46251;-61
2022/10/22 04:09:22;;;;;;;;;4.75;2.00;;;;;16.96;67.31;100536.75;4976493;28;45446;-61
2022/10/22 04:11:48;;;;;;;;;1.00;1.00;;;;;16.86;67.23;100538.31;4960126;28;45315;-61
2022/10/22 04:14:13;;;;;;;;;0.75;0.75;;;;;16.82;67.31;100553.78;4977977;28;45502;-61
2022/10/22 04:16:39;;;;;;;;;2.75;1.50;;;;;16.62;67.51;100510.03;4977160;28;45493;-61
2022/10/22 04:19:05;;;;;;;;;4.20;1.00;;;;;16.82;67.60;100544.63;4977066;28;45231;-61
2022/10/22 04:21:30;;;;;;;;;2.00;1.50;;;;;16.79;67.77;100549.59;4977557;28;45334;-61
2022/10/22 04:23:56;;;;;;;;;1.00;1.00;;;;;16.80;67.69;100553.19;4977779;28;45192;-61
2022/10/22 04:26:22;;;;;;;;;1.25;1.25;;;;;16.86;67.51;100562.44;4994717;28;46288;-60
2022/10/22 04:28:48;;;;;;;;;3.00;2.00;;;;;16.89;67.49;100561.91;4996894;28;45384;-61
2022/10/22 04:31:15;;;;;;;;;2.20;1.00;;;;;16.91;67.31;100563.31;4995315;28;45295;-61
2022/10/22 04:33:41;;;;;;;;;2.20;2.20;;;;;16.86;67.66;100563.25;4995750;28;45298;-61
2022/10/22 04:36:12;;;;;;;;;1.20;1.00;;;;;16.80;67.77;100565.13;4996236;28;46270;-61
2022/10/22 04:38:38;;;;;;;;;3.00;1.60;;;;;16.59;67.91;100532.72;4995480;28;45476;-61
2022/10/22 04:41:11;;;;;;;;;1.00;1.00;;;;;16.72;67.96;100573.91;5028202;28;45358;-60
2022/10/22 04:43:36;;;;;;;;;1.40;1.40;;;;;16.72;68.13;100575.81;5012425;28;45405;-60
2022/10/22 04:46:02;;;;;;;;;5.00;4.00;;;;;16.79;68.13;100574.53;5011294;28;47957;-61
2022/10/22 04:48:27;;;;;;;;;7.75;7.75;;;;;16.83;67.75;100576.78;4996693;28;45448;-61
2022/10/22 04:50:53;;;;;;;;;8.00;7.00;;;;;16.83;67.82;100579.56;4996845;28;45318;-61
2022/10/22 04:53:18;;;;;;;;;14.75;12.00;;;;;16.85;67.68;100580.16;4996582;28;45589;-61
2022/10/22 04:55:44;;;;;;;;;12.75;12.00;;;;;16.76;67.90;100565.91;4996312;28;45557;-60
2022/10/22 04:58:09;;;;;;;;;8.00;8.00;;;;;16.67;67.97;100549.72;5027942;28;45313;-61
2022/10/22 05:00:35;;;;;;;;;6.25;6.25;;;;;16.62;67.77;100544.13;5011793;28;45378;-62
2022/10/22 05:03:00;;;;;;;;;4.25;4.00;;;;;16.83;67.80;100579.56;4996863;28;45429;-61
2022/10/22 05:05:26;;;;;;;;;5.00;2.75;;;;;16.82;67.78;100581.50;4996056;28;46207;-61
2022/10/22 05:07:51;;;;;;;;;2.75;2.75;;;;;16.74;67.73;100574.47;4996556;28;45536;-61
2022/10/22 05:10:16;;;;;;;;;4.00;2.00;;;;;16.79;68.19;100588.41;4994995;28;45453;-61
2022/10/22 05:12:42;;;;;;;;;4.75;2.75;;;;;16.78;68.08;100589.50;4996501;28;45391;-62
2022/10/22 05:15:08;;;;;;;;;2.00;2.00;;;;;16.79;68.00;100588.41;4996324;28;46316;-61
2022/10/22 05:17:36;;;;;;;;;5.25;3.25;;;;;16.79;68.29;100590.31;4996121;28;45427;-61
2022/10/22 05:20:03;;;;;;;;;3.60;3.60;;;;;16.72;68.17;100584.97;4995074;28;45462;-60
2022/10/22 05:22:29;;;;;;;;;2.00;2.00;;;;;16.77;68.31;100589.75;4996214;28;45370;-60
2022/10/22 05:24:54;;;;;;;;;3.00;3.00;;;;;16.75;68.23;100594.72;4989072;28;46478;-60
2022/10/22 05:27:20;;;;;;;;;2.00;2.00;;;;;16.83;68.21;100601.72;4976122;28;45478;-61
2022/10/22 05:29:45;;;;;;;;;2.00;2.00;;;;;16.83;68.28;100599.81;4976103;28;45382;-61
2022/10/22 05:32:10;;;;;;;;;3.75;3.75;;;;;16.85;68.18;100600.38;4976534;28;45471;-61
2022/10/22 05:34:36;;;;;;;;;5.00;3.00;;;;;16.83;67.73;100619.22;4976102;28;45479;-61
2022/10/22 05:37:02;;;;;;;;;2.00;2.00;;;;;16.82;68.23;100617.53;4968316;28;45301;-60
2022/10/22 05:39:27;;;;;;;;;4.00;2.75;;;;;16.75;68.03;100608.56;4996359;28;45307;-60
2022/10/22 05:41:53;;;;;;;;;5.00;2.00;;;;;16.48;68.44;100576.06;4996152;28;45133;-63
2022/10/22 05:44:18;;;;;;;;;2.50;2.50;;;;;16.75;68.51;100614.13;4995988;28;46684;-63
2022/10/22 05:46:44;;;;;;;;;4.25;1.75;;;;;16.54;68.46;100586.09;4995283;28;45337;-61
2022/10/22 05:49:12;;;;;;;;;4.00;3.00;;;;;16.67;68.60;100613.44;4978724;28;45226;-61
2022/10/22 05:51:37;;;;;;;;;5.60;3.00;;;;;16.46;68.95;100586.56;4995917;28;45959;-61
2022/10/22 05:54:04;;;;;;;;;3.75;2.50;;;;;16.45;68.92;100591.28;4994836;28;45542;-61
2022/10/22 05:56:33;;;;;;;;;2.20;2.20;;;;;16.63;68.82;100612.28;4995824;28;46047;-61
2022/10/22 05:58:58;;;;;;;;;2.40;1.60;;;;;16.62;69.19;100616.16;4995871;28;45279;-61
2022/10/22 06:01:26;;;;;;;;;2.50;2.50;;;;;16.61;68.93;100611.72;4994562;28;45506;-61
2022/10/22 06:03:55;;;;;;;;;2.40;2.20;;;;;16.37;68.81;100588.91;4995383;28;45795;-61
2022/10/22 06:06:36;;;;;;;;;4.00;2.80;;;;;16.26;69.17;100577.72;4977828;28;45406;-59
2022/10/22 06:09:11;;;;;;;;;2.20;2.20;;;;;16.55;69.04;100622.97;4994253;28;45481;-61
2022/10/22 06:11:37;;;;;;;;;2.20;1.80;;;;;16.55;69.16;100628.50;4995581;28;45552;-61
2022/10/22 06:14:03;;;;;;;;;3.60;2.80;;;;;16.52;69.16;100627.09;4995188;28;45429;-63
2022/10/22 06:16:29;;;;;;;;;4.00;2.50;;;;;16.27;69.24;100592.38;4994193;28;45400;-62
2022/10/22 06:18:54;;;;;;;;;2.60;1.80;;;;;16.50;69.45;100632.06;4993714;28;45379;-61
2022/10/22 06:21:20;;;;;;;;;2.25;1.25;;;;;16.47;69.47;100630.63;4995851;28;45500;-62
2022/10/22 06:23:45;;;;;;;;;2.00;2.00;;;;;16.36;69.45;100612.16;4994727;28;45491;-62
2022/10/22 06:26:11;;;;;;;;;3.00;3.00;;;;;16.50;69.21;100643.13;4995238;28;45849;-62
2022/10/22 06:28:37;;;;;;;;;3.50;2.75;;;;;16.42;69.32;100635.25;4994437;28;45353;-61
2022/10/22 06:31:02;;;;;;;;;2.75;2.25;;;;;16.45;69.56;100646.69;4994730;28;45315;-62
2022/10/22 06:33:28;;;;;;;;;4.25;3.75;;;;;16.43;69.30;100648.00;4993714;28;46038;-62
2022/10/22 06:35:54;;;;;;;;;3.25;3.00;;;;;16.21;69.55;100612.78;4993376;28;45794;-62
2022/10/22 06:38:19;;;;;;;;;2.00;2.00;;;;;16.28;69.50;100632.84;4974514;28;46025;-62
2022/10/22 06:40:45;;;;;;;;;4.25;3.75;;;;;16.35;69.89;100650.13;4993379;28;45575;-62
2022/10/22 06:43:11;;;;;;;;;2.00;2.00;;;;;16.30;69.77;100636.19;4993390;28;47086;-62
2022/10/22 06:45:37;;;;;;;;;3.20;1.00;;;;;16.18;69.78;100629.91;4994835;28;45310;-63
2022/10/22 06:48:02;;;;;;;;;4.75;3.50;;;;;16.24;69.79;100637.19;4993124;28;45824;-61
2022/10/22 06:50:28;;;;;;;;;3.75;3.00;;;;;16.33;69.63;100665.31;4994011;28;45407;-63
2022/10/22 06:52:53;;;;;;;;;4.00;2.50;;;;;16.08;69.82;100625.88;4993282;28;46369;-62
2022/10/22 06:55:19;;;;;;;;;4.00;4.00;;;;;16.30;69.73;100668.56;4994713;28;45259;-61
2022/10/22 06:57:44;;;;;;;;;4.00;4.00;;;;;16.39;69.84;100673.44;4976680;28;45339;-61
2022/10/22 07:00:10;;;;;;;;;3.00;3.00;;;;;16.38;69.42;100682.84;4995240;28;45522;-62
2022/10/22 07:02:36;;;;;;;;;3.40;2.00;;;;;16.38;69.67;100693.06;4994634;28;46053;-61
2022/10/22 07:05:01;;;;;;;;;2.75;2.75;;;;;16.36;69.77;100693.34;4994333;28;45544;-61
2022/10/22 07:07:27;;;;;;;;;8.75;4.00;;;;;16.11;69.93;100663.28;4995427;28;45413;-61
2022/10/22 07:09:52;;;;;;;;;1.75;1.25;;;;;16.04;69.75;100646.84;4998269;28;45362;-61
2022/10/22 07:12:24;;;;;;;;;4.00;4.00;;;;;16.33;69.84;100699.38;4980026;28;46820;-61
2022/10/22 07:14:50;;;;;;;;;4.00;3.40;;;;;16.38;69.85;100712.44;4998245;28;45906;-60
2022/10/22 07:17:15;;;;;;;;;4.75;3.25;;;;;16.34;69.83;100712.13;4997710;28;45536;-60
2022/10/22 07:19:41;;;;;;;;;4.50;4.50;;;;;16.30;69.84;100708.19;4997943;28;45480;-61
2022/10/22 07:22:06;;;;;;;;;3.25;3.25;;;;;16.36;69.91;100717.41;4996350;28;46157;-61
2022/10/22 07:24:32;;;;;;;;;5.75;4.00;;;;;16.35;69.81;100726.81;4997866;28;45525;-61
2022/10/22 07:26:57;;;;;;;;;3.50;3.00;;;;;16.19;69.90;100698.88;4997394;28;45474;-61
2022/10/22 07:29:23;;;;;;;;;3.25;2.00;;;;;16.37;69.73;100724.63;4997691;28;45335;-61
2022/10/22 07:31:48;;;;;;;;;3.25;3.25;;;;;16.16;69.96;100698.53;4997538;28;45416;-61
2022/10/22 07:34:14;;;;;;;;;5.25;4.25;;;;;16.43;69.83;100728.34;4997470;28;45349;-61
2022/10/22 07:36:39;;;;;;;;;5.00;5.00;;;;;16.47;69.49;100726.72;4997715;28;45361;-61
2022/10/22 07:39:05;;;;;;;;;4.75;3.00;;;;;16.42;69.74;100729.44;4988614;28;45413;-61
2022/10/22 07:41:30;;;;;;;;;5.00;2.75;;;;;16.46;69.69;100736.97;4995468;28;45510;-61
2022/10/22 07:43:56;;;;;;;;;4.00;4.00;;;;;16.49;69.21;100743.97;4993318;28;45523;-60
2022/10/22 07:46:22;;;;;;;;;4.50;4.00;;;;;16.50;69.26;100737.31;4974954;28;45390;-60
2022/10/22 07:48:48;;;;;;;;;2.50;2.00;;;;;16.45;69.10;100729.78;4979562;28;45459;-61
2022/10/22 07:51:13;;;;;;;;;4.25;3.00;;;;;16.55;69.13;100750.41;4995630;28;45436;-61
2022/10/22 07:53:39;;;;;;;;;6.50;3.50;;;;;16.51;69.03;100744.53;4995243;28;45367;-59
2022/10/22 07:56:05;;;;;;;;;5.00;4.00;;;;;16.52;69.16;100740.66;4995827;28;45413;-59
2022/10/22 07:58:30;;;;;;;;;3.50;2.50;;;;;16.51;68.80;100739.00;4996498;28;45432;-60
2022/10/22 08:00:57;;;;;;;;;4.50;2.00;;;;;16.52;69.11;100749.84;4996053;28;45442;-60
2022/10/22 08:03:22;;;;;;;;;3.20;3.20;;;;;16.57;69.01;100748.22;4994210;28;45577;-60
2022/10/22 08:05:48;;;;;;;;;4.00;4.00;;;;;16.49;69.26;100758.63;4996046;28;45495;-61
2022/10/22 08:08:14;;;;;;;;;3.25;3.25;;;;;16.21;69.22;100707.75;5027156;28;45398;-60
2022/10/22 08:10:39;;;;;;;;;4.80;2.20;;;;;16.51;69.29;100758.38;4996442;28;48492;-60
2022/10/22 08:13:05;;;;;;;;;4.75;3.50;;;;;16.39;69.07;100739.09;4995334;28;45416;-60
2022/10/22 08:15:31;;;;;;;;;9.75;5.00;;;;;16.59;68.94;100762.69;5028103;28;45536;-60
2022/10/22 08:17:56;;;;;;;;;3.00;3.00;;;;;16.36;68.86;100721.03;4996287;28;45219;-59
2022/10/22 08:20:22;;;;;;;;;4.00;2.75;;;;;16.59;68.93;100757.13;4987388;28;45883;-60
2022/10/22 08:22:47;;;;;;;;;2.75;2.75;;;;;16.15;69.16;100685.75;4995577;28;45456;-61
2022/10/22 08:25:14;;;;;;;;;3.00;2.00;;;;;16.63;68.96;100763.84;5011635;28;45510;-60
2022/10/22 08:27:39;;;;;;;;;3.60;3.60;;;;;16.63;68.89;100767.47;4995989;28;45513;-61
2022/10/22 08:30:06;;;;;;;;;2.00;1.00;;;;;16.69;68.90;100765.59;4995436;28;45666;-61
2022/10/22 08:32:31;;;;;;;;;5.00;3.40;;;;;16.58;69.06;100734.13;4995496;28;45473;-61
2022/10/22 08:34:57;;;;;;;;;3.50;3.25;;;;;16.76;68.68;100765.44;4996361;28;45404;-60
2022/10/22 08:37:23;;;;;;;;;4.00;2.25;;;;;16.77;68.32;100756.84;4996769;28;45339;-61
2022/10/22 08:39:48;;;;;;;;;3.50;2.75;;;;;16.77;68.86;100754.06;4988791;28;46782;-60
2022/10/22 08:42:32;;;;;;;;;5.25;4.00;;;;;16.52;68.84;100707.44;4981262;28;45446;-60
2022/10/22 08:45:40;;;;;;;;;2.60;2.60;;;;;16.85;68.40;100755.59;4996824;28;45467;-61
2022/10/22 08:48:23;;;;;;;;;3.20;3.20;;;;;16.90;68.43;100752.06;4976157;28;45323;-58
2022/10/22 08:50:51;;;;;;;;;3.40;2.80;;;;;16.71;68.42;100718.25;4996284;28;46309;-61
2022/10/22 08:53:19;;;;;;;;;4.40;2.00;;;;;16.97;68.41;100762.97;4996438;28;45320;-61
2022/10/22 08:55:46;;;;;;;;;2.60;2.20;;;;;16.78;68.29;100735.53;4978540;28;45469;-60
2022/10/22 08:58:19;;;;;;;;;5.00;3.00;;;;;17.01;68.20;100764.13;4978918;28;45417;-61
2022/10/22 09:00:53;;;;;;;;;8.40;6.80;;;;;16.72;68.09;100722.69;4994680;28;46478;-59
2022/10/22 09:03:37;;;;;;;;;4.00;3.00;;;;;17.10;68.00;100765.41;4995716;28;45347;-60
2022/10/22 09:06:26;;;;;;;;;2.80;2.80;;;;;17.12;68.02;100760.44;4994998;28;45550;-60
2022/10/22 09:08:52;;;;;;;;;4.20;4.20;;;;;17.11;68.31;100763.47;4995048;28;45609;-60
2022/10/22 09:11:27;;;;;;;;;4.75;4.00;;;;;17.15;68.18;100765.50;4995134;28;47502;-60
2022/10/22 09:13:53;;;;;;;;;4.40;2.20;;;;;17.20;67.92;100771.09;4996027;28;45430;-61
2022/10/22 09:16:51;;;;;;;;;2.20;2.20;;;;;17.18;67.91;100764.16;4995310;28;45374;-59
2022/10/22 09:19:28;;;;;;;;;7.60;3.40;;;;;17.26;68.09;100763.69;4980932;28;45585;-60
2022/10/22 09:22:22;;;;;;;;;5.40;3.80;;;;;17.30;67.79;100758.47;4994989;28;45718;-59
2022/10/22 09:24:50;;;;;;;;;2.00;2.00;;;;;17.30;67.94;100758.47;4995570;28;45564;-59
2022/10/22 09:27:17;;;;;;;;;5.40;2.60;;;;;17.37;67.84;100769.38;4996294;28;45431;-60
2022/10/22 09:29:43;;;;;;;;;5.40;4.60;;;;;17.42;67.65;100775.84;4995085;28;45384;-58
2022/10/22 09:32:09;;;;;;;;;1.80;1.80;;;;;17.46;67.50;100774.22;4995255;28;46044;-59
2022/10/22 09:34:34;;;;;;;;;4.75;3.25;;;;;17.52;67.85;100769.59;4994801;28;45422;-58
2022/10/22 09:37:04;;;;;;;;;3.75;3.25;;;;;17.51;67.53;100759.59;4995675;28;45369;-58
2022/10/22 09:39:33;;;;;;;;;1.80;0.00;;;;;17.56;67.67;100759.63;4963950;28;45641;-59
2022/10/22 09:41:59;;;;;;;;;3.00;3.00;;;;;17.64;67.52;100763.91;4992416;28;46608;-58
2022/10/22 09:44:26;;;;;;;;;5.00;5.00;;;;;17.73;67.38;100770.66;4982112;28;45352;-60
2022/10/22 09:46:58;;;;;;;;;3.00;3.00;;;;;17.80;67.17;100759.34;4963274;28;45369;-60
2022/10/22 09:49:25;;;;;;;;;2.60;1.00;;;;;17.85;66.47;100756.66;4992322;28;45357;-59
2022/10/22 09:51:56;;;;;;;;;3.00;2.80;;;;;17.71;67.18;100731.22;4977330;28;45398;-60
2022/10/22 09:54:39;;;;;;;;;6.40;1.80;;;;;17.92;67.02;100761.97;4993919;28;45393;-60
2022/10/22 09:57:37;;;;;;;;;4.40;4.20;;;;;18.00;66.77;100757.91;4993398;28;45522;-60
2022/10/22 10:00:10;;;;;;;;;5.60;4.60;;;;;18.15;66.94;100763.63;4992945;28;45329;-60
2022/10/22 10:02:41;;;;;;;;;3.20;3.20;;;;;18.33;66.08;100764.38;4993377;28;46024;-59
2022/10/22 10:05:24;;;;;;;;;6.00;3.80;;;;;18.48;65.77;100758.13;4990822;28;45497;-60
2022/10/22 10:07:50;;;;;;;;;8.00;5.00;;;;;18.60;65.60;100757.94;4974312;28;45391;-60
2022/10/22 10:10:39;;;;;;;;;5.00;4.00;;;;;18.73;65.38;100756.63;4990655;28;45409;-59
2022/10/22 10:13:23;;;;;;;;;2.20;2.20;;;;;18.88;64.23;100758.69;4992999;28;46323;-60
2022/10/22 10:15:52;;;;;;;;;4.40;3.80;;;;;18.99;64.70;100761.53;4989677;28;45430;-60
2022/10/22 10:18:36;;;;;;;;;2.20;2.20;;;;;19.18;64.27;100765.59;4973060;28;45336;-59
2022/10/22 10:21:16;;;;;;;;;4.40;4.40;;;;;19.36;63.47;100761.50;4974520;28;45462;-60
2022/10/22 10:24:10;;;;;;;;;1.00;1.00;;;;;19.51;62.85;100759.88;4958565;28;46667;-60
2022/10/22 10:26:57;;;;;;;;;4.40;2.00;;;;;19.57;62.56;100728.16;4984838;28;45366;-60
2022/10/22 10:29:43;;;;;;;;;3.00;2.20;;;;;19.99;61.62;100756.16;4993224;28;45781;-58
2022/10/22 10:32:27;;;;;;;;;5.60;4.20;;;;;20.02;61.52;100745.28;4977122;28;45468;-60
2022/10/22 10:35:01;;;;;;;;;6.00;2.80;;;;;20.07;60.87;100741.72;4993407;28;46489;-59
2022/10/22 10:37:29;;;;;;;;;6.20;3.40;;;;;20.26;60.80;100766.22;4992270;28;45391;-59
2022/10/22 10:39:59;;;;;;;;;3.80;2.00;;;;;20.17;60.18;100724.97;4981213;28;45579;-59
2022/10/22 10:42:38;;;;;;;;;6.00;3.20;;;;;20.59;59.81;100773.22;4996631;28;45649;-60
2022/10/22 10:45:10;;;;;;;;;5.60;4.00;;;;;20.23;59.47;100699.91;4996860;28;45772;-60
2022/10/22 10:48:10;;;;;;;;;3.00;1.80;;;;;20.17;59.52;100657.31;4990809;28;45646;-57
2022/10/22 10:51:00;;;;;;;;;4.20;3.20;;;;;21.11;58.28;100772.34;4993023;28;45499;-55
2022/10/22 10:53:46;;;;;;;;;4.20;3.20;;;;;21.42;57.70;100758.31;4994043;28;45901;-58
2022/10/22 10:56:23;;;;;;;;;4.60;4.60;;;;;21.80;56.82;100730.78;4994739;28;45453;-58
2022/10/22 10:59:00;;;;;;;;;2.60;2.60;;;;;23.14;54.21;100774.72;4969135;28;47600;-59
2022/10/22 11:01:33;;;;;;;;;4.60;3.00;;;;;26.04;47.59;100757.84;4993808;28;45670;-62
2022/10/22 11:04:21;;;;;;;;;5.00;3.20;;;;;28.88;40.29;100702.00;4994348;28;45536;-58
2022/10/22 11:06:46;;;;;;;;;5.20;2.60;;;;;31.56;36.01;100758.44;4993998;28;45439;-60
2022/10/22 11:09:23;;;;;;;;;3.00;2.50;;;;;32.53;34.20;100759.72;5011349;28;45528;-61
2022/10/22 11:11:50;;;;;;;;;4.20;2.00;;;;;33.73;31.54;100719.28;5010416;28;45446;-61
2022/10/22 11:14:25;;;;;;;;;3.60;3.60;;;;;34.98;29.99;100730.72;4993500;28;46403;-60
2022/10/22 11:17:06;;;;;;;;;2.00;1.60;;;;;35.74;29.07;100733.16;4983354;28;46034;-60
2022/10/22 11:19:37;;;;;;;;;1.20;1.20;;;;;36.33;27.63;100732.69;4979335;28;45398;-62
2022/10/22 11:22:09;;;;;;;;;2.00;2.00;;;;;37.70;26.71;100750.28;4994444;28;45517;-61
2022/10/22 11:24:39;;;;;;;;;3.40;2.00;;;;;38.13;25.19;100725.16;4995198;28;45307;-60
2022/10/22 11:27:11;;;;;;;;;2.20;1.60;;;;;38.53;25.23;100728.13;4980764;28;45767;-62
2022/10/22 11:29:45;;;;;;;;;1.40;1.40;;;;;38.58;24.88;100748.63;4959216;28;45280;-56
2022/10/22 11:32:16;;;;;;;;;1.40;1.40;;;;;39.17;24.89;100743.75;4975422;28;45533;-62
2022/10/22 11:34:56;;;;;;;;;1.00;1.00;;;;;39.72;23.93;100744.50;4959799;28;45650;-61